Wetterdaten: Woche 02.02.26 - 08.02.26 (KW6)
Datum Zeit Temp. Aussen Temp. o. S. Temp +5cm Feuchte Auss Luftdruck Regen Sonnenschein Regendauer Solar Windböen Empfang
02.02.2026 00:00 5,3 °C 4,5 °C 1,2 °C 92 % 1004,1 hPa 0,0 l/m² 0,00 h 0,00 h 0 W/m² 18,7 km/h (3 Bft) 96,98 %
02.02.2026 01:00 5,2 °C 4,4 °C 1,1 °C 92 % 1003,6 hPa 0,0 l/m² 0,00 h 0,00 h 0 W/m² 18,2 km/h (3 Bft) 97,39 %
02.02.2026 02:00 5,1 °C 4,4 °C 1,1 °C 92 % 1003,1 hPa 0,0 l/m² 0,00 h 0,00 h 0 W/m² 15,3 km/h (3 Bft) 96,47 %
02.02.2026 03:00 5,1 °C 4,4 °C 1,1 °C 92 % 1002,6 hPa 0,0 l/m² 0,00 h 0,00 h 0 W/m² 14,5 km/h (3 Bft) 94,46 %
02.02.2026 04:00 4,8 °C 4,2 °C 0,8 °C 90 % 1002,3 hPa 0,0 l/m² 0,00 h 0,00 h 0 W/m² 17,9 km/h (3 Bft) 98,13 %
02.02.2026 05:00 4,6 °C 3,9 °C 0,6 °C 88 % 1002,1 hPa 0,0 l/m² 0,00 h 0,00 h 0 W/m² 20,6 km/h (4 Bft) 96,65 %
02.02.2026 06:00 4,2 °C 3,4 °C 0,0 °C 88 % 1001,9 hPa 0,0 l/m² 0,00 h 0,00 h 0 W/m² 17,1 km/h (3 Bft) 97,76 %
02.02.2026 07:00 3,9 °C 3,2 °C -0,1 °C 89 % 1001,8 hPa 0,0 l/m² 0,00 h 0,00 h 0 W/m² 17,3 km/h (3 Bft) 95,76 %
02.02.2026 08:00 3,7 °C 3,1 °C -0,4 °C 90 % 1001,9 hPa 0,0 l/m² 0,00 h 0,00 h 17 W/m² 15,0 km/h (3 Bft) 96,24 %
02.02.2026 09:00 4,2 °C 4,5 °C 0,6 °C 89 % 1002,1 hPa 0,0 l/m² 0,30 h 0,00 h 76 W/m² 16,6 km/h (3 Bft) 96,49 %
02.02.2026 10:00 5,2 °C 6,2 °C 1,3 °C 85 % 1002,1 hPa 0,0 l/m² 0,30 h 0,00 h 149 W/m² 22,1 km/h (4 Bft) 96,88 %
02.02.2026 11:00 6,3 °C 9,5 °C 2,2 °C 82 % 1002,1 hPa 0,0 l/m² 0,73 h 0,00 h 252 W/m² 21,4 km/h (4 Bft) 97,32 %
02.02.2026 12:00 6,9 °C 9,8 °C 2,8 °C 79 % 1002,1 hPa 0,0 l/m² 0,73 h 0,00 h 267 W/m² 20,6 km/h (4 Bft) 97,52 %
02.02.2026 13:00 7,6 °C 9,4 °C 3,2 °C 76 % 1001,8 hPa 0,0 l/m² 0,63 h 0,00 h 231 W/m² 21,2 km/h (4 Bft) 98,15 %
02.02.2026 14:00 7,5 °C 7,7 °C 3,3 °C 77 % 1001,6 hPa 0,0 l/m² 0,10 h 0,00 h 130 W/m² 19,5 km/h (3 Bft) 97,23 %
02.02.2026 15:00 7,4 °C 7,2 °C 3,3 °C 78 % 1001,3 hPa 0,0 l/m² 0,13 h 0,00 h 89 W/m² 18,3 km/h (3 Bft) 96,20 %
02.02.2026 16:00 7,1 °C 6,6 °C 2,6 °C 79 % 1001,3 hPa 0,0 l/m² 0,00 h 0,00 h 34 W/m² 14,3 km/h (3 Bft) 96,82 %
02.02.2026 17:00 6,3 °C 5,5 °C 1,8 °C 80 % 1001,3 hPa 0,0 l/m² 0,00 h 0,00 h 9 W/m² 14,5 km/h (3 Bft) 95,00 %
02.02.2026 18:00 5,6 °C 4,7 °C 1,1 °C 78 % 1001,5 hPa 0,0 l/m² 0,00 h 0,00 h 0 W/m² 18,4 km/h (3 Bft) 97,62 %
02.02.2026 19:00 4,4 °C 3,5 °C -0,1 °C 80 % 1001,6 hPa 0,0 l/m² 0,00 h 0,00 h 0 W/m² 18,7 km/h (3 Bft) 95,67 %
02.02.2026 20:00 3,4 °C 2,6 °C -1,0 °C 82 % 1001,8 hPa 0,0 l/m² 0,00 h 0,00 h 0 W/m² 18,3 km/h (3 Bft) 98,04 %
02.02.2026 21:00 3,0 °C 2,3 °C -1,1 °C 84 % 1002,0 hPa 0,0 l/m² 0,00 h 0,00 h 0 W/m² 11,6 km/h (2 Bft) 96,90 %
02.02.2026 22:00 2,9 °C 2,2 °C -1,1 °C 84 % 1001,8 hPa 0,0 l/m² 0,00 h 0,00 h 0 W/m² 12,0 km/h (2 Bft) 94,31 %
02.02.2026 23:00 2,9 °C 2,2 °C -1,1 °C 83 % 1001,5 hPa 0,0 l/m² 0,00 h 0,00 h 0 W/m² 16,4 km/h (3 Bft) 99,30 %
03.02.2026 00:00 3,0 °C 2,3 °C -1,1 °C 83 % 1001,2 hPa 0,0 l/m² 0,00 h 0,00 h 0 W/m² 19,4 km/h (3 Bft) 95,03 %
03.02.2026 01:00 3,0 °C 2,2 °C -1,1 °C 84 % 1000,8 hPa 0,0 l/m² 0,00 h 0,00 h 0 W/m² 18,6 km/h (3 Bft) 99,57 %
03.02.2026 02:00 3,0 °C 2,2 °C -1,1 °C 84 % 1000,2 hPa 0,0 l/m² 0,00 h 0,00 h 0 W/m² 17,3 km/h (3 Bft) 97,68 %
03.02.2026 03:00 2,9 °C 2,2 °C -1,1 °C 85 % 999,7 hPa 0,0 l/m² 0,00 h 0,00 h 0 W/m² 18,9 km/h (3 Bft) 96,30 %
03.02.2026 04:00 2,6 °C 2,1 °C -1,6 °C 85 % 999,1 hPa 0,0 l/m² 0,00 h 0,00 h 0 W/m² 13,0 km/h (3 Bft) 95,37 %
03.02.2026 05:00 1,8 °C 0,9 °C -2,5 °C 86 % 998,5 hPa 0,0 l/m² 0,00 h 0,00 h 0 W/m² 13,0 km/h (3 Bft) 97,67 %
03.02.2026 06:00 -0,0 °C -1,0 °C -4,2 °C 88 % 998,1 hPa 0,0 l/m² 0,00 h 0,00 h 0 W/m² 9,1 km/h (2 Bft) 92,37 %
03.02.2026 07:00 -0,6 °C -1,2 °C -4,4 °C 90 % 997,9 hPa 0,0 l/m² 0,00 h 0,00 h 0 W/m² 7,9 km/h (2 Bft) 95,73 %
03.02.2026 08:00 -0,6 °C -1,1 °C -4,4 °C 91 % 997,9 hPa 0,0 l/m² 0,00 h 0,00 h 15 W/m² 10,0 km/h (2 Bft) 98,77 %
03.02.2026 09:00 -0,2 °C -0,2 °C -3,9 °C 92 % 997,9 hPa 0,0 l/m² 0,00 h 0,00 h 42 W/m² 8,8 km/h (2 Bft) 94,18 %
03.02.2026 10:00 0,8 °C 1,3 °C -2,5 °C 90 % 998,1 hPa 0,0 l/m² 0,00 h 0,00 h 65 W/m² 11,8 km/h (2 Bft) 97,68 %
03.02.2026 11:00 1,8 °C 1,1 °C -3,1 °C 88 % 998,7 hPa 1,4 l/m² 0,00 h 0,77 h 44 W/m² 21,7 km/h (4 Bft) 97,94 %
03.02.2026 12:00 1,3 °C 0,6 °C -3,3 °C 93 % 998,7 hPa 2,4 l/m² 0,00 h 0,77 h 43 W/m² 21,1 km/h (4 Bft) 96,04 %
03.02.2026 13:00 1,8 °C 1,7 °C -2,5 °C 95 % 998,2 hPa 0,0 l/m² 0,00 h 0,07 h 107 W/m² 19,6 km/h (3 Bft) 97,82 %
03.02.2026 14:00 2,4 °C 2,2 °C -2,2 °C 94 % 997,9 hPa 0,0 l/m² 0,00 h 0,07 h 104 W/m² 23,1 km/h (4 Bft) 97,65 %
03.02.2026 15:00 2,7 °C 2,6 °C -1,9 °C 93 % 997,8 hPa 0,0 l/m² 0,00 h 0,00 h 83 W/m² 21,7 km/h (4 Bft) 96,64 %
03.02.2026 16:00 2,9 °C 2,5 °C -1,7 °C 93 % 997,7 hPa 0,0 l/m² 0,00 h 0,00 h 38 W/m² 21,1 km/h (4 Bft) 95,59 %
03.02.2026 17:00 3,1 °C 2,8 °C -1,4 °C 93 % 997,6 hPa 0,0 l/m² 0,00 h 0,00 h 5 W/m² 25,1 km/h (4 Bft) 97,78 %
03.02.2026 18:00 3,3 °C 2,8 °C -0,6 °C 93 % 997,7 hPa 0,0 l/m² 0,00 h 0,00 h 0 W/m² 26,2 km/h (4 Bft) 96,76 %
03.02.2026 19:00 3,3 °C 2,8 °C -0,6 °C 92 % 998,2 hPa 0,0 l/m² 0,00 h 0,00 h 0 W/m² 26,2 km/h (4 Bft) 94,52 %
03.02.2026 20:00 3,3 °C 2,8 °C -0,9 °C 93 % 998,6 hPa 0,2 l/m² 0,00 h 0,13 h 0 W/m² 21,4 km/h (4 Bft) 96,09 %
03.02.2026 21:00 3,3 °C 2,2 °C -1,1 °C 95 % 999,1 hPa 1,0 l/m² 0,00 h 0,33 h 0 W/m² 18,9 km/h (3 Bft) 96,44 %
03.02.2026 22:00 3,3 °C 2,5 °C -1,1 °C 96 % 999,3 hPa 0,2 l/m² 0,00 h 0,07 h 0 W/m² 16,7 km/h (3 Bft) 96,95 %
03.02.2026 23:00 3,2 °C 2,7 °C -1,1 °C 96 % 999,5 hPa 0,0 l/m² 0,00 h 0,00 h 0 W/m² 14,2 km/h (3 Bft) 99,29 %
04.02.2026 00:00 3,2 °C 2,7 °C -1,1 °C 97 % 999,7 hPa 0,0 l/m² 0,00 h 0,00 h 0 W/m² 13,8 km/h (3 Bft) 95,86 %
04.02.2026 01:00 3,4 °C 3,0 °C -0,7 °C 97 % 999,7 hPa 0,0 l/m² 0,00 h 0,00 h 0 W/m² 13,9 km/h (3 Bft) 99,19 %
04.02.2026 02:00 3,8 °C 3,3 °C -0,6 °C 97 % 999,6 hPa 0,0 l/m² 0,00 h 0,00 h 0 W/m² 13,5 km/h (3 Bft) 96,56 %
04.02.2026 03:00 3,8 °C 3,3 °C -0,4 °C 97 % 999,7 hPa 0,0 l/m² 0,00 h 0,00 h 0 W/m² 15,1 km/h (3 Bft) 98,36 %
04.02.2026 04:00 3,5 °C 2,8 °C -0,6 °C 97 % 999,6 hPa 0,0 l/m² 0,00 h 0,00 h 0 W/m² 15,8 km/h (3 Bft) 97,15 %
04.02.2026 05:00 2,9 °C 2,1 °C -1,1 °C 97 % 999,5 hPa 0,0 l/m² 0,00 h 0,00 h 0 W/m² 11,3 km/h (2 Bft) 97,80 %
04.02.2026 06:00 2,6 °C 1,7 °C -1,1 °C 97 % 999,3 hPa 0,0 l/m² 0,00 h 0,00 h 0 W/m² 14,6 km/h (3 Bft) 97,82 %
04.02.2026 07:00 2,4 °C 1,7 °C -1,4 °C 97 % 999,4 hPa 0,0 l/m² 0,00 h 0,00 h 0 W/m² 17,3 km/h (3 Bft) 95,66 %
04.02.2026 08:00 2,4 °C 2,2 °C -1,1 °C 98 % 999,6 hPa 0,0 l/m² 0,00 h 0,00 h 20 W/m² 14,9 km/h (3 Bft) 99,18 %
04.02.2026 09:00 2,9 °C 2,8 °C -0,6 °C 98 % 999,6 hPa 0,0 l/m² 0,00 h 0,00 h 40 W/m² 15,7 km/h (3 Bft) 96,29 %
04.02.2026 10:00 3,8 °C 6,8 °C 0,5 °C 98 % 999,4 hPa 0,0 l/m² 0,63 h 0,00 h 187 W/m² 17,5 km/h (3 Bft) 96,92 %
04.02.2026 11:00 6,3 °C 14,0 °C 2,3 °C 96 % 999,2 hPa 0,0 l/m² 1,00 h 0,00 h 338 W/m² 16,9 km/h (3 Bft) 98,73 %
04.02.2026 12:00 7,9 °C 13,2 °C 3,3 °C 86 % 998,8 hPa 0,0 l/m² 0,70 h 0,00 h 304 W/m² 15,9 km/h (3 Bft) 97,26 %
04.02.2026 13:00 10,2 °C 17,1 °C 4,7 °C 78 % 998,1 hPa 0,0 l/m² 1,00 h 0,00 h 386 W/m² 17,1 km/h (3 Bft) 98,27 %
04.02.2026 14:00 11,1 °C 14,8 °C 5,4 °C 74 % 997,3 hPa 0,0 l/m² 1,00 h 0,00 h 296 W/m² 17,5 km/h (3 Bft) 98,06 %
04.02.2026 15:00 10,8 °C 11,5 °C 5,2 °C 74 % 996,8 hPa 0,0 l/m² 0,67 h 0,00 h 141 W/m² 13,8 km/h (3 Bft) 95,66 %
04.02.2026 16:00 9,7 °C 9,0 °C 4,2 °C 78 % 996,4 hPa 0,0 l/m² 0,00 h 0,00 h 50 W/m² 8,0 km/h (2 Bft) 98,18 %
04.02.2026 17:00 8,7 °C 7,6 °C 3,2 °C 79 % 996,4 hPa 0,0 l/m² 0,00 h 0,00 h 10 W/m² 8,2 km/h (2 Bft) 97,94 %
04.02.2026 18:00 7,7 °C 6,3 °C 2,3 °C 82 % 996,3 hPa 0,0 l/m² 0,00 h 0,00 h 0 W/m² 2,5 km/h (1 Bft) 95,26 %
04.02.2026 19:00 6,5 °C 4,5 °C 0,6 °C 84 % 995,9 hPa 0,0 l/m² 0,00 h 0,00 h 0 W/m² 0,7 km/h (0 Bft) 98,52 %
04.02.2026 20:00 5,6 °C 4,5 °C 0,9 °C 89 % 995,5 hPa 0,0 l/m² 0,00 h 0,00 h 0 W/m² 8,2 km/h (2 Bft) 96,40 %
04.02.2026 21:00 4,7 °C 3,7 °C 0,1 °C 90 % 995,1 hPa 0,0 l/m² 0,00 h 0,00 h 0 W/m² 10,3 km/h (2 Bft) 97,56 %
04.02.2026 22:00 3,3 °C 2,2 °C -1,2 °C 91 % 994,8 hPa 0,0 l/m² 0,00 h 0,00 h 0 W/m² 10,4 km/h (2 Bft) 94,10 %
04.02.2026 23:00 2,1 °C 1,1 °C -2,1 °C 92 % 994,7 hPa 0,0 l/m² 0,00 h 0,00 h 0 W/m² 9,5 km/h (2 Bft) 99,43 %
05.02.2026 00:00 1,4 °C 0,6 °C -2,8 °C 93 % 994,6 hPa 0,0 l/m² 0,00 h 0,00 h 0 W/m² 7,9 km/h (2 Bft) 95,46 %
05.02.2026 01:00 1,1 °C 0,2 °C -2,8 °C 94 % 994,5 hPa 0,0 l/m² 0,00 h 0,00 h 0 W/m² 4,9 km/h (1 Bft) 98,43 %
05.02.2026 02:00 1,3 °C 1,0 °C -2,4 °C 95 % 994,0 hPa 0,0 l/m² 0,00 h 0,00 h 0 W/m² 6,6 km/h (2 Bft) 98,17 %
05.02.2026 03:00 1,7 °C 1,1 °C -2,2 °C 95 % 993,7 hPa 0,0 l/m² 0,00 h 0,00 h 0 W/m² 5,9 km/h (2 Bft) 94,16 %
05.02.2026 04:00 2,0 °C 1,7 °C -1,8 °C 95 % 993,2 hPa 0,0 l/m² 0,00 h 0,00 h 0 W/m² 7,3 km/h (2 Bft) 96,30 %
05.02.2026 05:00 2,3 °C 1,7 °C -1,7 °C 95 % 992,8 hPa 0,0 l/m² 0,00 h 0,00 h 0 W/m² 8,3 km/h (2 Bft) 95,81 %
05.02.2026 06:00 2,6 °C 2,2 °C -1,3 °C 94 % 992,4 hPa 0,0 l/m² 0,00 h 0,00 h 0 W/m² 8,7 km/h (2 Bft) 98,23 %
05.02.2026 07:00 3,3 °C 2,8 °C -0,6 °C 91 % 992,1 hPa 0,0 l/m² 0,00 h 0,00 h 0 W/m² 16,3 km/h (3 Bft) 93,99 %
05.02.2026 08:00 3,4 °C 2,8 °C -0,6 °C 89 % 992,0 hPa 0,0 l/m² 0,00 h 0,00 h 13 W/m² 16,3 km/h (3 Bft) 99,43 %
05.02.2026 09:00 3,4 °C 3,3 °C -0,4 °C 89 % 992,1 hPa 0,0 l/m² 0,27 h 0,00 h 78 W/m² 17,0 km/h (3 Bft) 95,69 %
05.02.2026 10:00 4,2 °C 5,5 °C 0,4 °C 88 % 992,1 hPa 0,0 l/m² 0,67 h 0,00 h 176 W/m² 20,3 km/h (4 Bft) 97,01 %
05.02.2026 11:00 5,3 °C 8,2 °C 1,4 °C 84 % 991,8 hPa 0,0 l/m² 0,80 h 0,00 h 249 W/m² 20,5 km/h (4 Bft) 98,18 %
05.02.2026 12:00 5,4 °C 5,5 °C 1,5 °C 85 % 991,3 hPa 0,0 l/m² 0,00 h 0,00 h 109 W/m² 17,4 km/h (3 Bft) 95,67 %
05.02.2026 13:00 6,3 °C 7,2 °C 2,5 °C 84 % 990,8 hPa 0,0 l/m² 0,37 h 0,00 h 197 W/m² 18,4 km/h (3 Bft) 96,90 %
05.02.2026 14:00 7,3 °C 9,2 °C 2,8 °C 82 % 990,3 hPa 0,0 l/m² 0,43 h 0,00 h 191 W/m² 17,4 km/h (3 Bft) 98,37 %
05.02.2026 15:00 8,0 °C 8,6 °C 3,1 °C 81 % 990,0 hPa 0,0 l/m² 0,23 h 0,00 h 94 W/m² 14,9 km/h (3 Bft) 96,74 %
05.02.2026 16:00 7,4 °C 6,8 °C 2,8 °C 84 % 989,8 hPa 0,0 l/m² 0,00 h 0,00 h 18 W/m² 15,0 km/h (3 Bft) 95,87 %
05.02.2026 17:00 6,8 °C 6,0 °C 2,1 °C 86 % 990,0 hPa 0,0 l/m² 0,20 h 0,00 h 17 W/m² 18,7 km/h (3 Bft) 97,44 %
05.02.2026 18:00 6,0 °C 4,9 °C 1,3 °C 88 % 990,0 hPa 0,0 l/m² 0,00 h 0,00 h 0 W/m² 13,3 km/h (3 Bft) 97,79 %
05.02.2026 19:00 5,2 °C 4,4 °C 0,6 °C 92 % 989,6 hPa 0,0 l/m² 0,00 h 0,07 h 0 W/m² 17,8 km/h (3 Bft) 96,97 %
05.02.2026 20:00 4,7 °C 4,1 °C 0,6 °C 93 % 989,2 hPa 0,0 l/m² 0,00 h 0,00 h 0 W/m² 16,1 km/h (3 Bft) 97,09 %
05.02.2026 21:00 4,6 °C 3,9 °C 0,6 °C 93 % 989,0 hPa 0,0 l/m² 0,00 h 0,00 h 0 W/m² 15,9 km/h (3 Bft) 95,24 %
05.02.2026 22:00 4,3 °C 3,8 °C 0,1 °C 92 % 988,9 hPa 0,0 l/m² 0,00 h 0,00 h 0 W/m² 16,0 km/h (3 Bft) 98,86 %
05.02.2026 23:00 4,0 °C 3,3 °C -0,2 °C 92 % 989,0 hPa 0,0 l/m² 0,00 h 0,00 h 0 W/m² 16,1 km/h (3 Bft) 93,91 %
06.02.2026 00:00 3,7 °C 3,2 °C -0,5 °C 92 % 989,3 hPa 0,0 l/m² 0,00 h 0,00 h 0 W/m² 17,4 km/h (3 Bft) 93,83 %
06.02.2026 01:00 3,4 °C 2,8 °C -0,6 °C 93 % 989,1 hPa 0,0 l/m² 0,00 h 0,00 h 0 W/m² 13,9 km/h (3 Bft) 97,79 %
06.02.2026 02:00 3,1 °C 2,7 °C -0,9 °C 93 % 989,1 hPa 0,0 l/m² 0,00 h 0,00 h 0 W/m² 16,0 km/h (3 Bft) 95,68 %
06.02.2026 03:00 3,0 °C 2,2 °C -1,1 °C 93 % 988,9 hPa 0,0 l/m² 0,00 h 0,00 h 0 W/m² 14,9 km/h (3 Bft) 96,85 %
06.02.2026 04:00 3,0 °C 2,6 °C -0,8 °C 94 % 989,1 hPa 0,0 l/m² 0,00 h 0,00 h 0 W/m² 12,9 km/h (3 Bft) 93,57 %
06.02.2026 05:00 3,2 °C 2,8 °C -0,6 °C 93 % 989,5 hPa 0,0 l/m² 0,00 h 0,00 h 0 W/m² 12,0 km/h (2 Bft) 98,86 %
06.02.2026 06:00 3,3 °C 2,8 °C -0,9 °C 93 % 989,8 hPa 0,5 l/m² 0,00 h 0,27 h 0 W/m² 12,0 km/h (2 Bft) 95,25 %
06.02.2026 07:00 3,2 °C 2,2 °C -1,1 °C 94 % 990,1 hPa 0,7 l/m² 0,00 h 0,30 h 0 W/m² 9,8 km/h (2 Bft) 98,61 %
06.02.2026 08:00 3,0 °C 2,3 °C -1,1 °C 95 % 990,6 hPa 0,2 l/m² 0,00 h 0,00 h 13 W/m² 9,5 km/h (2 Bft) 96,45 %
06.02.2026 09:00 3,1 °C 2,8 °C -1,1 °C 96 % 991,1 hPa 0,0 l/m² 0,00 h 0,00 h 29 W/m² 13,0 km/h (3 Bft) 94,45 %
06.02.2026 10:00 3,4 °C 3,6 °C -0,6 °C 97 % 991,3 hPa 0,0 l/m² 0,00 h 0,03 h 83 W/m² 15,9 km/h (3 Bft) 95,92 %
06.02.2026 11:00 3,9 °C 4,2 °C -0,2 °C 96 % 991,7 hPa 0,0 l/m² 0,00 h 0,00 h 89 W/m² 16,2 km/h (3 Bft) 97,29 %
06.02.2026 12:00 4,5 °C 4,5 °C 0,7 °C 95 % 991,9 hPa 0,0 l/m² 0,00 h 0,03 h 74 W/m² 14,9 km/h (3 Bft) 96,14 %
06.02.2026 13:00 5,1 °C 5,0 °C 1,1 °C 93 % 991,8 hPa 0,0 l/m² 0,00 h 0,03 h 91 W/m² 16,3 km/h (3 Bft) 97,66 %
06.02.2026 14:00 5,4 °C 5,0 °C 0,9 °C 93 % 991,9 hPa 0,7 l/m² 0,00 h 0,53 h 59 W/m² 13,3 km/h (3 Bft) 96,31 %
06.02.2026 15:00 5,6 °C 5,3 °C 1,1 °C 95 % 992,4 hPa 0,2 l/m² 0,23 h 0,17 h 92 W/m² 16,5 km/h (3 Bft) 96,37 %
06.02.2026 16:00 5,6 °C 5,4 °C 1,1 °C 96 % 992,7 hPa 0,0 l/m² 0,23 h 0,00 h 52 W/m² 18,3 km/h (3 Bft) 97,45 %
06.02.2026 17:00 5,6 °C 5,1 °C 1,1 °C 96 % 993,1 hPa 0,0 l/m² 0,37 h 0,00 h 23 W/m² 15,8 km/h (3 Bft) 98,43 %
06.02.2026 18:00 5,6 °C 5,0 °C 1,1 °C 96 % 993,7 hPa 0,0 l/m² 0,00 h 0,00 h 0 W/m² 17,9 km/h (3 Bft) 95,84 %
06.02.2026 19:00 5,6 °C 5,0 °C 1,1 °C 96 % 994,3 hPa 0,0 l/m² 0,00 h 0,00 h 0 W/m² 15,4 km/h (3 Bft) 97,65 %
06.02.2026 20:00 5,7 °C 5,0 °C 1,5 °C 96 % 995,1 hPa 0,0 l/m² 0,00 h 0,00 h 0 W/m² 15,1 km/h (3 Bft) 96,13 %
06.02.2026 21:00 5,8 °C 5,6 °C 1,8 °C 96 % 995,8 hPa 0,0 l/m² 0,00 h 0,00 h 0 W/m² 16,6 km/h (3 Bft) 95,45 %
06.02.2026 22:00 6,0 °C 5,6 °C 2,2 °C 96 % 996,6 hPa 0,0 l/m² 0,00 h 0,00 h 0 W/m² 14,3 km/h (3 Bft) 98,17 %
06.02.2026 23:00 6,1 °C 5,6 °C 1,9 °C 96 % 997,4 hPa 1,0 l/m² 0,00 h 0,23 h 0 W/m² 13,1 km/h (3 Bft) 96,06 %
07.02.2026 00:00 5,9 °C 5,0 °C 1,5 °C 97 % 998,1 hPa 0,0 l/m² 0,00 h 0,00 h 0 W/m² 7,9 km/h (2 Bft) 97,47 %
07.02.2026 01:00 5,7 °C 5,0 °C 1,7 °C 97 % 998,6 hPa 0,0 l/m² 0,00 h 0,00 h 0 W/m² 6,5 km/h (2 Bft) 95,57 %
07.02.2026 02:00 5,8 °C 5,1 °C 1,7 °C 98 % 999,2 hPa 0,0 l/m² 0,00 h 0,00 h 0 W/m² 6,5 km/h (2 Bft) 98,08 %
07.02.2026 03:00 6,0 °C 5,4 °C 2,1 °C 98 % 999,6 hPa 0,0 l/m² 0,00 h 0,00 h 0 W/m² 4,1 km/h (1 Bft) 96,80 %
07.02.2026 04:00 6,1 °C 5,6 °C 2,2 °C 98 % 1000,1 hPa 0,2 l/m² 0,00 h 0,07 h 0 W/m² 4,9 km/h (1 Bft) 94,73 %
07.02.2026 05:00 6,0 °C 5,1 °C 2,0 °C 98 % 1000,5 hPa 0,0 l/m² 0,00 h 0,00 h 0 W/m² 3,5 km/h (1 Bft) 98,93 %
07.02.2026 06:00 5,2 °C 4,1 °C 1,2 °C 98 % 1001,1 hPa 0,0 l/m² 0,00 h 0,00 h 0 W/m² 3,9 km/h (1 Bft) 95,79 %
07.02.2026 07:00 4,8 °C 3,9 °C 1,0 °C 98 % 1001,7 hPa 0,0 l/m² 0,00 h 0,00 h 0 W/m² 5,3 km/h (1 Bft) 96,94 %
07.02.2026 08:00 4,7 °C 4,1 °C 1,1 °C 98 % 1002,4 hPa 0,0 l/m² 0,00 h 0,00 h 16 W/m² 8,8 km/h (2 Bft) 97,86 %
07.02.2026 09:00 5,1 °C 5,1 °C 1,5 °C 99 % 1003,0 hPa 0,0 l/m² 0,00 h 0,00 h 49 W/m² 6,3 km/h (2 Bft) 94,67 %
07.02.2026 10:00 7,0 °C 12,5 °C 2,9 °C 99 % 1003,6 hPa 0,0 l/m² 0,90 h 0,00 h 226 W/m² 11,3 km/h (2 Bft) 97,29 %
07.02.2026 11:00 9,1 °C 18,4 °C 4,4 °C 99 % 1004,0 hPa 0,0 l/m² 1,00 h 0,00 h 342 W/m² 11,7 km/h (2 Bft) 98,09 %
07.02.2026 12:00 11,1 °C 17,1 °C 5,1 °C 90 % 1004,1 hPa 0,0 l/m² 0,73 h 0,00 h 312 W/m² 11,4 km/h (2 Bft) 96,71 %
07.02.2026 13:00 12,8 °C 17,8 °C 6,8 °C 80 % 1004,0 hPa 0,0 l/m² 0,73 h 0,00 h 280 W/m² 9,2 km/h (2 Bft) 98,86 %
07.02.2026 14:00 13,2 °C 17,4 °C 7,2 °C 76 % 1004,0 hPa 0,0 l/m² 0,97 h 0,00 h 318 W/m² 8,3 km/h (2 Bft) 98,29 %
07.02.2026 15:00 14,4 °C 16,4 °C 7,4 °C 71 % 1004,1 hPa 0,0 l/m² 1,00 h 0,00 h 253 W/m² 7,6 km/h (2 Bft) 95,08 %
07.02.2026 16:00 13,2 °C 11,8 °C 6,6 °C 72 % 1004,4 hPa 0,0 l/m² 0,10 h 0,00 h 46 W/m² 4,8 km/h (1 Bft) 96,31 %
07.02.2026 17:00 11,3 °C 8,9 °C 4,2 °C 78 % 1004,7 hPa 0,0 l/m² 0,00 h 0,00 h 10 W/m² 1,5 km/h (1 Bft) 95,65 %
07.02.2026 18:00 9,5 °C 7,0 °C 2,5 °C 82 % 1005,2 hPa 0,0 l/m² 0,00 h 0,00 h 0 W/m² 0,0 km/h (0 Bft) 98,39 %
07.02.2026 19:00 8,2 °C 6,9 °C 2,6 °C 86 % 1005,6 hPa 0,0 l/m² 0,00 h 0,00 h 0 W/m² 3,5 km/h (1 Bft) 97,30 %
07.02.2026 20:00 8,0 °C 7,0 °C 2,9 °C 89 % 1006,0 hPa 0,0 l/m² 0,00 h 0,00 h 0 W/m² 6,8 km/h (2 Bft) 97,09 %
07.02.2026 21:00 7,5 °C 6,5 °C 2,6 °C 90 % 1006,3 hPa 0,0 l/m² 0,00 h 0,00 h 0 W/m² 9,0 km/h (2 Bft) 97,58 %
07.02.2026 22:00 6,8 °C 5,7 °C 2,1 °C 91 % 1006,7 hPa 0,0 l/m² 0,00 h 0,00 h 0 W/m² 7,0 km/h (2 Bft) 95,91 %
07.02.2026 23:00 6,3 °C 5,6 °C 1,7 °C 91 % 1007,0 hPa 0,0 l/m² 0,00 h 0,00 h 0 W/m² 7,6 km/h (2 Bft) 96,70 %
08.02.2026 00:00 6,3 °C 5,6 °C 2,1 °C 93 % 1007,2 hPa 0,0 l/m² 0,00 h 0,00 h 0 W/m² 11,2 km/h (2 Bft) 95,08 %
08.02.2026 01:00 6,1 °C 5,1 °C 1,7 °C 93 % 1007,4 hPa 0,0 l/m² 0,00 h 0,00 h 0 W/m² 12,5 km/h (3 Bft) 98,65 %
08.02.2026 02:00 5,5 °C 4,5 °C 1,0 °C 94 % 1007,6 hPa 0,0 l/m² 0,00 h 0,00 h 0 W/m² 11,6 km/h (2 Bft) 96,30 %
08.02.2026 03:00 4,6 °C 3,6 °C 0,3 °C 95 % 1007,7 hPa 0,0 l/m² 0,00 h 0,00 h 0 W/m² 13,0 km/h (3 Bft) 97,23 %
08.02.2026 04:00 4,3 °C 3,3 °C 0,0 °C 96 % 1007,9 hPa 0,0 l/m² 0,00 h 0,00 h 0 W/m² 12,4 km/h (3 Bft) 97,84 %
08.02.2026 05:00 4,3 °C 3,7 °C 0,6 °C 97 % 1007,9 hPa 0,0 l/m² 0,00 h 0,00 h 0 W/m² 13,2 km/h (3 Bft) 96,62 %
08.02.2026 06:00 4,5 °C 3,9 °C 0,6 °C 98 % 1007,9 hPa 0,0 l/m² 0,00 h 0,00 h 0 W/m² 15,4 km/h (3 Bft) 95,28 %
08.02.2026 07:00 4,6 °C 3,9 °C 0,6 °C 98 % 1008,3 hPa 0,0 l/m² 0,00 h 0,00 h 0 W/m² 16,3 km/h (3 Bft) 95,72 %
08.02.2026 08:00 4,6 °C 4,2 °C 1,1 °C 98 % 1008,9 hPa 0,0 l/m² 0,00 h 0,00 h 12 W/m² 13,6 km/h (3 Bft) 96,47 %
08.02.2026 09:00 4,9 °C 4,7 °C 1,5 °C 99 % 1009,2 hPa 0,2 l/m² 0,00 h 0,00 h 31 W/m² 13,6 km/h (3 Bft) 98,02 %
08.02.2026 10:00 5,3 °C 5,5 °C 2,1 °C 99 % 1009,4 hPa 0,0 l/m² 0,00 h 0,00 h 79 W/m² 14,0 km/h (3 Bft) 97,30 %
08.02.2026 11:00 5,6 °C 5,8 °C 2,3 °C 98 % 1009,6 hPa 0,0 l/m² 0,00 h 0,00 h 106 W/m² 13,8 km/h (3 Bft) 97,58 %
08.02.2026 12:00 5,8 °C 6,2 °C 2,8 °C 98 % 1009,6 hPa 0,0 l/m² 0,00 h 0,00 h 129 W/m² 12,2 km/h (2 Bft) 94,41 %
08.02.2026 13:00 6,2 °C 6,6 °C 2,9 °C 96 % 1009,4 hPa 0,0 l/m² 0,00 h 0,00 h 122 W/m² 12,9 km/h (3 Bft) 96,90 %
08.02.2026 14:00 6,6 °C 6,7 °C 3,2 °C 94 % 1009,1 hPa 0,0 l/m² 0,00 h 0,00 h 96 W/m² 13,3 km/h (3 Bft) 96,68 %
08.02.2026 15:00 6,7 °C 6,6 °C 2,8 °C 92 % 1009,1 hPa 0,0 l/m² 0,00 h 0,00 h 70 W/m² 14,0 km/h (3 Bft) 97,56 %
08.02.2026 16:00 6,6 °C 6,2 °C 2,8 °C 92 % 1009,1 hPa 0,0 l/m² 0,00 h 0,00 h 49 W/m² 12,8 km/h (3 Bft) 97,46 %
08.02.2026 17:00 6,1 °C 5,0 °C 1,7 °C 92 % 1009,1 hPa 0,0 l/m² 0,00 h 0,00 h 14 W/m² 7,1 km/h (2 Bft) 95,64 %
08.02.2026 18:00 4,9 °C 3,2 °C 0,1 °C 92 % 1009,3 hPa 0,0 l/m² 0,00 h 0,00 h 0 W/m² 1,1 km/h (1 Bft) 96,89 %
08.02.2026 19:00 3,8 °C 2,3 °C -0,6 °C 93 % 1009,4 hPa 0,0 l/m² 0,00 h 0,00 h 0 W/m² 2,3 km/h (1 Bft) 98,91 %
08.02.2026 20:00 3,3 °C 2,1 °C -1,0 °C 94 % 1009,4 hPa 0,0 l/m² 0,00 h 0,00 h 0 W/m² 0,9 km/h (0 Bft) 94,78 %
08.02.2026 21:00 3,0 °C 1,9 °C -1,0 °C 95 % 1009,4 hPa 0,0 l/m² 0,00 h 0,00 h 0 W/m² 1,3 km/h (1 Bft) 98,46 %
08.02.2026 22:00 3,1 °C 2,2 °C -1,0 °C 96 % 1009,4 hPa 0,0 l/m² 0,00 h 0,00 h 0 W/m² 6,2 km/h (2 Bft) 95,74 %
08.02.2026 23:00 3,0 °C 2,2 °C -0,8 °C 96 % 1009,4 hPa 0,0 l/m² 0,00 h 0,00 h 0 W/m² 9,4 km/h (2 Bft) 94,85 %
Min-Datum _ 03.02.26 03.02.26 03.02.26 07.02.26 05.02.26 - - - - 02.02.26 06.02.26
_ Min-Zeit 07:32 06:46 06:56 15:24 22:22 - - - - 08:48 00:02
Minimum _ -0,7 °C -1,7 °C -5,0 °C 70 % 988,7 hPa - - - - 0,0 km/h (0 Bft) 10,00 %
Max-Datum _ 07.02.26 07.02.26 07.02.26 07.02.26 08.02.26 03.02.26 04.02.26 03.02.26 02.02.26 03.02.26 02.02.26
_ Max-Zeit 15:34 13:14 14:16 10:58 11:14 12:04 11:13 12:12 13:24 17:20 00:00
Maximum _ 14,6 °C 22,2 °C 7,8 °C 100 % 1009,7 hPa 2,4 l/m² 0,08 h 0,07 h 477 W/m² 41,8 km/h
S-SO (6 Bft)
100,00 %
Durchschnitt _ 4,9 °C 4,8 °C 0,6 °C 91 % 999,1 hPa #9,1 l/m² #17:10 h #3:56 h 113 W/m² 13,4 km/h (3 Bft) 96,81 %
© 2026 W. Hausmann